Time;durP1;ratioP1;P1;durP2;ratioP2;P2;SDS_P1;SDS_P2;PMS_P1;PMS_P2;Temp;Humidity;BMP_temperature;BMP_pressure;BME280_temperature;BME280_humidity;BME280_pressure;Samples;Min_cycle;Max_cycle;Signal;HPM_P1;HPM_P2
2022/01/01 00:01:08;;;;;;;63.33;24.15;;;10.60;99.90;;;;;;5011304;28;20038;-51
2022/01/01 00:03:34;;;;;;;57.00;27.10;;;10.50;99.90;;;;;;5011174;28;20052;-50
2022/01/01 00:05:59;;;;;;;61.50;28.50;;;10.50;99.90;;;;;;5011629;28;20081;-51
2022/01/01 00:08:25;;;;;;;66.10;28.42;;;10.50;99.90;;;;;;5011532;28;20069;-47
2022/01/01 00:10:51;;;;;;;60.80;33.20;;;10.60;99.90;;;;;;5011428;28;20060;-51
2022/01/01 00:13:17;;;;;;;80.55;34.55;;;10.50;99.90;;;;;;5011329;28;20059;-49
2022/01/01 00:15:42;;;;;;;78.38;42.40;;;10.60;99.90;;;;;;5011220;28;20441;-49
2022/01/01 00:18:08;;;;;;;82.70;41.30;;;10.50;99.90;;;;;;5011052;28;20109;-48
2022/01/01 00:20:34;;;;;;;78.00;36.75;;;10.50;99.90;;;;;;5011131;28;20038;-49
2022/01/01 00:22:59;;;;;;;72.40;33.17;;;10.60;99.90;;;;;;5011147;28;20087;-48
2022/01/01 00:25:25;;;;;;;60.42;28.88;;;10.60;99.90;;;;;;5011123;28;20053;-52
2022/01/01 00:27:53;;;;;;;55.28;24.85;;;10.50;99.90;;;;;;5011763;28;20050;-52
2022/01/01 00:30:19;;;;;;;58.08;23.20;;;10.60;99.90;;;;;;5011092;28;20050;-50
2022/01/01 00:32:45;;;;;;;58.50;25.33;;;10.60;99.90;;;;;;5010944;28;20095;-52
2022/01/01 00:35:10;;;;;;;66.07;25.83;;;10.60;99.90;;;;;;5010781;28;20483;-48
2022/01/01 00:37:36;;;;;;;47.95;21.13;;;10.60;99.90;;;;;;5010840;28;20034;-52
2022/01/01 00:40:02;;;;;;;54.80;22.30;;;10.60;99.90;;;;;;5011022;28;20365;-51
2022/01/01 00:42:28;;;;;;;50.80;23.65;;;10.60;99.90;;;;;;5010786;28;20045;-52
2022/01/01 00:44:53;;;;;;;58.72;25.63;;;10.60;99.90;;;;;;5010781;28;20094;-50
2022/01/01 00:47:19;;;;;;;63.08;24.85;;;10.60;99.90;;;;;;5010761;28;20094;-51
2022/01/01 00:49:45;;;;;;;59.88;25.48;;;10.60;99.90;;;;;;5010939;28;20046;-52
2022/01/01 00:52:10;;;;;;;61.20;25.35;;;10.60;99.90;;;;;;5010921;28;20050;-51
2022/01/01 00:54:36;;;;;;;63.33;27.50;;;10.60;99.90;;;;;;5010612;28;20083;-51
2022/01/01 00:57:02;;;;;;;60.75;27.52;;;10.60;99.90;;;;;;5010795;28;20393;-49
2022/01/01 00:59:30;;;;;;;62.97;27.75;;;10.50;99.90;;;;;;5010563;28;20059;-51
2022/01/01 01:01:57;;;;;;;64.05;25.67;;;10.60;99.90;;;;;;5010691;28;20048;-48
2022/01/01 01:04:22;;;;;;;66.03;26.35;;;10.60;99.90;;;;;;5010424;28;20514;-50
2022/01/01 01:06:48;;;;;;;63.40;24.02;;;10.60;99.90;;;;;;5010191;28;20041;-52
2022/01/01 01:09:14;;;;;;;66.43;25.48;;;10.50;99.90;;;;;;5010484;28;20049;-50
2022/01/01 01:11:45;;;;;;;68.18;28.67;;;10.50;99.90;;;;;;5010449;28;20034;-51
2022/01/01 01:14:19;;;;;;;64.32;28.50;;;10.50;99.90;;;;;;5009201;28;20073;-51
2022/01/01 01:16:45;;;;;;;66.00;26.40;;;10.30;99.90;;;;;;5010332;28;20186;-52
2022/01/01 01:19:11;;;;;;;58.25;25.02;;;10.40;99.90;;;;;;5010530;28;20030;-50
2022/01/01 01:21:36;;;;;;;68.97;25.38;;;10.30;99.90;;;;;;5010540;28;20097;-48
2022/01/01 01:24:02;;;;;;;57.67;24.55;;;10.30;99.90;;;;;;5010217;28;20049;-50
2022/01/01 01:26:29;;;;;;;54.25;24.33;;;10.20;99.90;;;;;;5009919;28;20106;-51
2022/01/01 01:28:56;;;;;;;62.50;25.00;;;10.20;99.90;;;;;;5008969;28;20062;-50
2022/01/01 01:31:24;;;;;;;68.40;24.45;;;10.10;99.90;;;;;;5010134;28;20050;-52
2022/01/01 01:33:50;;;;;;;72.40;26.60;;;10.10;99.90;;;;;;5010202;28;20042;-52
2022/01/01 01:36:16;;;;;;;71.07;24.80;;;10.10;99.90;;;;;;5010013;28;20042;-50
2022/01/01 01:38:41;;;;;;;67.25;23.10;;;10.10;99.90;;;;;;5010104;28;20033;-48
2022/01/01 01:41:09;;;;;;;67.35;22.80;;;10.10;99.90;;;;;;5009879;28;20041;-50
2022/01/01 01:43:34;;;;;;;64.15;24.00;;;10.10;99.90;;;;;;5009915;28;20054;-49
2022/01/01 01:46:05;;;;;;;63.80;23.23;;;10.10;99.90;;;;;;5009694;28;20117;-51
2022/01/01 01:48:33;;;;;;;55.42;22.13;;;10.10;99.90;;;;;;5009996;28;20432;-48
2022/01/01 01:50:59;;;;;;;69.53;23.58;;;10.00;99.90;;;;;;5009862;28;20038;-52
2022/01/01 01:53:26;;;;;;;62.60;25.20;;;10.00;99.90;;;;;;5009769;28;20041;-50
2022/01/01 01:55:52;;;;;;;74.22;26.65;;;10.00;99.90;;;;;;5009863;28;20421;-52
2022/01/01 01:58:18;;;;;;;65.30;25.55;;;10.00;99.90;;;;;;5009541;28;20038;-51
2022/01/01 02:00:53;;;;;;;74.43;28.05;;;10.00;99.90;;;;;;5009799;28;20040;-52
2022/01/01 02:03:19;;;;;;;87.20;29.60;;;10.10;99.90;;;;;;5009768;28;20042;-51
2022/01/01 02:05:45;;;;;;;77.18;29.63;;;10.20;99.90;;;;;;5009651;28;20042;-51
2022/01/01 02:08:12;;;;;;;92.43;35.17;;;10.10;99.90;;;;;;5009510;28;20104;-51
2022/01/01 02:10:39;;;;;;;86.90;34.35;;;10.20;99.90;;;;;;5009602;28;20094;-51
2022/01/01 02:13:11;;;;;;;87.20;33.60;;;10.30;99.90;;;;;;5009286;28;20080;-47
2022/01/01 02:18:26;;;;;;;90.93;37.15;;;10.40;99.90;;;;;;4968364;28;20515;-51
2022/01/01 02:20:51;;;;;;;107.88;42.75;;;10.40;99.90;;;;;;4968245;28;20079;-51
2022/01/01 02:23:23;;;;;;;104.65;42.40;;;10.40;99.90;;;;;;4968185;28;20046;-52
2022/01/01 02:25:50;;;;;;;95.65;41.38;;;10.50;99.90;;;;;;4967714;28;20059;-50
2022/01/01 02:28:16;;;;;;;105.78;42.25;;;10.50;99.90;;;;;;4968150;28;20050;-52
2022/01/01 02:30:42;;;;;;;112.10;47.05;;;10.50;99.90;;;;;;4967934;28;20057;-52
2022/01/01 02:33:07;;;;;;;111.90;47.67;;;10.50;99.90;;;;;;4968081;28;20042;-52
2022/01/01 02:35:33;;;;;;;117.50;49.15;;;10.50;99.90;;;;;;4968202;28;20116;-50
2022/01/01 02:37:59;;;;;;;115.97;50.25;;;10.50;99.90;;;;;;4967930;28;20134;-52
2022/01/01 02:40:24;;;;;;;134.27;52.25;;;10.50;99.90;;;;;;4968116;28;20545;-49
2022/01/01 02:42:51;;;;;;;114.63;49.78;;;10.50;99.90;;;;;;4968025;28;20078;-51
2022/01/01 02:45:17;;;;;;;109.20;45.90;;;10.50;99.90;;;;;;4967988;28;20042;-52
2022/01/01 02:47:43;;;;;;;112.68;45.75;;;10.60;99.90;;;;;;4968053;28;20057;-52
2022/01/01 02:50:11;;;;;;;116.22;42.75;;;10.60;99.90;;;;;;4968068;28;20064;-46
2022/01/01 02:52:37;;;;;;;97.90;41.90;;;10.60;99.90;;;;;;4967955;28;20043;-50
2022/01/01 02:55:04;;;;;;;99.85;38.83;;;10.50;99.90;;;;;;4982195;28;20114;-48
2022/01/01 02:57:29;;;;;;;105.72;40.40;;;10.50;99.90;;;;;;5009307;28;20129;-50
2022/01/01 02:59:55;;;;;;;90.10;36.08;;;10.50;99.90;;;;;;5008890;28;20113;-51
2022/01/01 03:02:21;;;;;;;78.65;33.28;;;10.50;99.90;;;;;;5008921;28;20042;-49
2022/01/01 03:04:47;;;;;;;85.90;34.60;;;10.50;99.90;;;;;;5008825;28;20400;-49
2022/01/01 03:07:13;;;;;;;92.50;34.13;;;10.50;99.90;;;;;;5007694;28;20050;-48
2022/01/01 03:09:38;;;;;;;91.05;33.60;;;10.50;99.90;;;;;;5008801;28;20049;-47
2022/01/01 03:12:09;;;;;;;94.15;34.55;;;10.60;99.90;;;;;;5008891;28;20099;-48
2022/01/01 03:14:35;;;;;;;91.50;33.97;;;10.50;99.90;;;;;;5008688;28;20083;-48
2022/01/01 03:17:01;;;;;;;91.97;34.15;;;10.60;99.90;;;;;;5008793;28;20081;-49
2022/01/01 03:19:27;;;;;;;84.80;33.22;;;10.60;99.90;;;;;;5008736;28;20034;-48
2022/01/01 03:21:52;;;;;;;82.20;33.22;;;10.60;99.90;;;;;;5008452;28;20041;-49
2022/01/01 03:24:18;;;;;;;89.55;34.30;;;10.60;99.90;;;;;;5008790;28;20041;-52
2022/01/01 03:26:44;;;;;;;90.95;35.13;;;10.70;99.90;;;;;;5008470;28;20404;-48
2022/01/01 03:29:10;;;;;;;81.13;35.35;;;10.60;99.90;;;;;;5008632;28;20097;-49
2022/01/01 03:31:36;;;;;;;84.07;35.53;;;10.60;99.90;;;;;;5008638;28;20078;-50
2022/01/01 03:34:03;;;;;;;91.05;36.45;;;10.60;99.90;;;;;;5008424;28;20384;-50
2022/01/01 03:36:29;;;;;;;89.68;35.75;;;10.60;99.90;;;;;;5007231;28;20042;-51
2022/01/01 03:38:55;;;;;;;94.53;37.63;;;10.60;99.90;;;;;;5012026;28;20046;-51
2022/01/01 03:41:21;;;;;;;86.32;34.70;;;10.60;99.90;;;;;;5011937;28;20034;-51
2022/01/01 03:43:47;;;;;;;80.60;33.75;;;10.60;99.90;;;;;;5011779;28;20056;-50
2022/01/01 03:46:13;;;;;;;95.95;34.05;;;10.60;99.90;;;;;;5010624;28;20046;-49
2022/01/01 03:48:38;;;;;;;84.40;32.28;;;10.60;99.90;;;;;;5011695;28;20045;-50
2022/01/01 03:51:04;;;;;;;85.18;31.00;;;10.60;99.90;;;;;;5011558;28;20121;-50
2022/01/01 03:53:30;;;;;;;76.88;28.13;;;10.60;99.90;;;;;;5011958;28;20077;-48
2022/01/01 03:55:55;;;;;;;88.47;30.02;;;10.60;99.90;;;;;;5011634;28;20141;-50
2022/01/01 03:58:21;;;;;;;72.00;29.27;;;10.60;99.90;;;;;;5011469;28;20115;-50
2022/01/01 04:00:47;;;;;;;83.70;29.58;;;10.60;99.90;;;;;;5011444;28;20109;-50
2022/01/01 04:03:16;;;;;;;79.57;29.45;;;10.60;99.90;;;;;;5011318;28;20376;-50
2022/01/01 04:05:43;;;;;;;81.78;31.30;;;10.60;99.90;;;;;;5011171;28;20460;-50
2022/01/01 04:08:10;;;;;;;65.97;28.42;;;10.60;99.90;;;;;;5011523;28;20042;-52
2022/01/01 04:10:36;;;;;;;76.57;28.63;;;10.50;99.90;;;;;;5011443;28;20085;-50
2022/01/01 04:13:04;;;;;;;76.60;27.50;;;10.60;99.90;;;;;;5011082;28;20491;-50
2022/01/01 04:15:31;;;;;;;75.20;28.48;;;10.50;99.90;;;;;;5011295;28;20082;-52
2022/01/01 04:18:01;;;;;;;74.35;27.25;;;10.50;99.90;;;;;;5011177;28;20037;-49
2022/01/01 04:20:28;;;;;;;70.50;27.65;;;10.50;99.90;;;;;;5011618;28;20044;-50
2022/01/01 04:22:55;;;;;;;75.40;27.85;;;10.50;99.90;;;;;;5010144;28;20052;-51
2022/01/01 04:25:22;;;;;;;78.38;30.25;;;10.50;99.90;;;;;;5011289;28;20038;-50
2022/01/01 04:27:49;;;;;;;69.35;28.48;;;10.50;99.90;;;;;;5009290;28;20094;-53
2022/01/01 04:30:15;;;;;;;75.38;29.40;;;10.50;99.90;;;;;;5011345;28;20034;-50
2022/01/01 04:32:41;;;;;;;77.40;30.35;;;10.50;99.90;;;;;;5011075;28;20506;-52
2022/01/01 04:35:07;;;;;;;86.55;30.38;;;10.50;99.90;;;;;;5011002;28;20117;-52
2022/01/01 04:37:33;;;;;;;84.75;31.60;;;10.50;99.90;;;;;;5010968;28;20050;-48
2022/01/01 04:39:59;;;;;;;73.82;31.65;;;10.50;99.90;;;;;;5011030;28;20107;-49
2022/01/01 04:42:26;;;;;;;81.30;31.33;;;10.50;99.90;;;;;;5010807;28;20085;-52
2022/01/01 04:44:52;;;;;;;68.53;30.08;;;10.50;99.90;;;;;;5010768;28;20038;-48
2022/01/01 04:47:18;;;;;;;78.43;31.52;;;10.50;99.90;;;;;;5010669;28;20060;-52
2022/01/01 04:49:44;;;;;;;74.18;29.55;;;10.50;99.90;;;;;;5010728;28;20468;-50
2022/01/01 04:52:10;;;;;;;75.47;29.65;;;10.60;99.90;;;;;;5010779;28;20109;-49
2022/01/01 04:54:39;;;;;;;84.30;31.85;;;10.50;99.90;;;;;;5010520;28;20113;-51
2022/01/01 04:57:05;;;;;;;75.20;31.63;;;10.60;99.90;;;;;;5010335;28;20117;-50
2022/01/01 04:59:33;;;;;;;76.82;33.95;;;10.50;99.90;;;;;;5010548;28;20038;-52
2022/01/01 05:01:58;;;;;;;82.93;34.53;;;10.50;99.90;;;;;;5009226;28;20502;-51
2022/01/01 05:04:24;;;;;;;85.55;36.15;;;10.50;99.90;;;;;;5010590;28;20049;-50
2022/01/01 05:06:51;;;;;;;88.50;37.65;;;10.50;99.90;;;;;;5010307;28;20427;-47
2022/01/01 05:09:18;;;;;;;87.03;39.97;;;10.50;99.90;;;;;;5010275;28;20046;-49
2022/01/01 05:11:44;;;;;;;83.85;39.88;;;10.60;99.90;;;;;;5010239;28;20479;-52
2022/01/01 05:14:10;;;;;;;87.75;43.55;;;10.60;99.90;;;;;;5010335;28;20037;-51
2022/01/01 05:16:36;;;;;;;110.28;47.15;;;10.60;99.90;;;;;;5010162;28;20472;-48
2022/01/01 05:19:02;;;;;;;91.40;49.63;;;10.60;99.90;;;;;;5010362;28;20117;-49
2022/01/01 05:21:31;;;;;;;103.78;50.25;;;10.60;99.90;;;;;;5010187;28;20117;-52
2022/01/01 05:23:57;;;;;;;;;;;10.60;99.90;;;;;;5010779;28;20049;-50
2022/01/01 05:26:23;;;;;;;108.35;54.35;;;10.60;99.90;;;;;;5009927;28;20287;-49
2022/01/01 05:28:49;;;;;;;116.03;57.85;;;10.60;99.90;;;;;;5009082;28;20060;-52
2022/01/01 05:31:19;;;;;;;121.18;59.58;;;10.60;99.90;;;;;;5010244;28;20071;-51
2022/01/01 05:33:49;;;;;;;112.18;58.08;;;10.60;99.90;;;;;;5010129;28;20038;-50
2022/01/01 05:36:15;;;;;;;114.88;56.70;;;10.60;99.90;;;;;;5008884;28;20046;-50
2022/01/01 05:38:42;;;;;;;115.47;58.65;;;10.60;99.90;;;;;;5010162;28;20038;-52
2022/01/01 05:41:07;;;;;;;104.85;54.50;;;10.60;99.90;;;;;;5009974;28;20073;-51
2022/01/01 05:43:33;;;;;;;115.38;54.03;;;10.70;99.90;;;;;;5009865;28;20085;-52
2022/01/01 05:45:59;;;;;;;123.88;54.33;;;10.60;99.90;;;;;;5010041;28;20041;-51
2022/01/01 05:48:24;;;;;;;105.32;48.90;;;10.60;99.90;;;;;;5010022;28;20563;-51
2022/01/01 05:50:50;;;;;;;99.03;47.05;;;10.60;99.90;;;;;;5009867;28;20065;-52
2022/01/01 05:53:17;;;;;;;108.55;47.45;;;10.60;99.90;;;;;;5009822;28;20034;-52
2022/01/01 05:55:42;;;;;;;104.93;45.65;;;10.60;99.90;;;;;;5009647;28;20438;-50
2022/01/01 05:58:08;;;;;;;96.15;41.95;;;10.60;99.90;;;;;;5009637;28;20046;-50
2022/01/01 06:00:34;;;;;;;96.70;44.20;;;10.60;99.90;;;;;;5009567;28;20045;-51
2022/01/01 06:03:00;;;;;;;86.53;41.53;;;10.60;99.90;;;;;;5009931;28;20038;-52
2022/01/01 06:05:29;;;;;;;87.03;37.60;;;10.50;99.90;;;;;;5009700;28;20052;-48
2022/01/01 06:07:56;;;;;;;80.75;36.95;;;10.50;99.90;;;;;;5009601;28;20416;-52
2022/01/01 06:10:23;;;;;;;76.20;33.78;;;10.50;99.90;;;;;;5009603;28;20038;-50
2022/01/01 06:12:48;;;;;;;74.72;31.42;;;10.50;99.90;;;;;;5009863;28;20042;-51
2022/01/01 06:15:14;;;;;;;70.72;33.08;;;10.50;99.90;;;;;;5009629;28;20849;-52
2022/01/01 06:17:40;;;;;;;81.32;32.30;;;10.50;99.90;;;;;;5009483;28;20400;-53
2022/01/01 06:20:06;;;;;;;86.95;32.00;;;10.50;99.90;;;;;;5009392;28;20091;-52
2022/01/01 06:22:31;;;;;;;97.35;31.83;;;10.40;99.90;;;;;;5009484;28;20092;-52
2022/01/01 06:24:57;;;;;;;78.53;30.80;;;10.40;99.90;;;;;;5009170;28;20083;-52
2022/01/01 06:27:23;;;;;;;90.75;30.90;;;10.50;99.90;;;;;;5009024;28;20053;-52
2022/01/01 06:29:48;;;;;;;92.68;30.50;;;10.50;99.90;;;;;;5009416;28;20046;-52
2022/01/01 06:32:14;;;;;;;87.10;29.25;;;10.50;99.90;;;;;;5009322;28;20045;-52
2022/01/01 06:34:40;;;;;;;76.75;28.48;;;10.50;99.90;;;;;;5009175;28;20120;-50
2022/01/01 06:37:05;;;;;;;85.05;29.88;;;10.50;99.90;;;;;;5009263;28;20398;-49
2022/01/01 06:39:31;;;;;;;84.13;28.75;;;10.50;99.90;;;;;;5009012;28;20127;-52
2022/01/01 06:41:57;;;;;;;88.13;28.70;;;10.50;99.90;;;;;;5009056;28;20117;-52
2022/01/01 06:44:22;;;;;;;94.47;28.80;;;10.50;99.90;;;;;;5009168;28;20523;-49
2022/01/01 06:46:48;;;;;;;81.72;27.90;;;10.60;99.90;;;;;;5007337;28;20449;-50
2022/01/01 06:49:14;;;;;;;83.18;29.55;;;10.60;99.90;;;;;;5009024;28;20041;-48
2022/01/01 06:51:40;;;;;;;81.32;26.33;;;10.60;99.90;;;;;;5009249;28;20054;-49
2022/01/01 06:54:05;;;;;;;79.80;28.48;;;10.60;99.90;;;;;;5008800;28;20045;-50
2022/01/01 06:56:31;;;;;;;76.20;25.92;;;10.60;99.90;;;;;;5009055;28;20046;-51
2022/01/01 06:58:57;;;;;;;83.40;28.35;;;10.60;99.90;;;;;;5008737;28;20124;-50
2022/01/01 07:01:22;;;;;;;80.60;26.45;;;10.60;99.90;;;;;;5008980;28;20038;-47
2022/01/01 07:03:48;;;;;;;74.35;26.38;;;10.60;99.90;;;;;;5008872;28;20045;-50
2022/01/01 07:06:14;;;;;;;69.30;25.45;;;10.60;99.90;;;;;;5007689;28;20403;-51
2022/01/01 07:08:39;;;;;;;71.68;25.27;;;10.70;99.90;;;;;;5008671;28;20365;-49
2022/01/01 07:11:05;;;;;;;70.15;26.08;;;10.70;99.90;;;;;;5006492;28;20053;-49
2022/01/01 07:13:31;;;;;;;66.93;23.83;;;10.70;99.90;;;;;;5012001;28;20038;-48
2022/01/01 07:15:57;;;;;;;65.65;23.35;;;10.70;99.90;;;;;;5012366;28;20372;-49
2022/01/01 07:18:22;;;;;;;58.85;22.70;;;10.70;99.90;;;;;;5011719;28;20395;-50
2022/01/01 07:20:48;;;;;;;60.92;21.90;;;10.70;99.90;;;;;;5008042;28;20070;-50
2022/01/01 07:23:13;;;;;;;62.53;23.23;;;10.70;99.90;;;;;;4992357;28;20065;-50
2022/01/01 07:25:39;;;;;;;66.82;25.65;;;10.70;99.90;;;;;;4992563;28;20038;-47
2022/01/01 07:28:05;;;;;;;63.53;23.02;;;10.80;99.90;;;;;;4992246;28;20544;-49
2022/01/01 07:30:30;;;;;;;80.00;24.60;;;10.80;99.90;;;;;;4992740;28;20042;-51
2022/01/01 07:32:56;;;;;;;74.78;25.45;;;10.80;99.90;;;;;;4992404;28;20038;-52
2022/01/01 07:35:22;;;;;;;64.32;23.30;;;10.80;99.90;;;;;;4992175;28;20365;-52
2022/01/01 07:37:49;;;;;;;79.00;25.15;;;10.80;99.90;;;;;;4992208;28;20034;-51
2022/01/01 07:40:16;;;;;;;63.03;24.83;;;10.80;99.90;;;;;;4992134;28;20039;-50
2022/01/01 07:42:43;;;;;;;68.75;24.17;;;10.80;99.90;;;;;;4992460;28;20048;-50
2022/01/01 07:45:10;;;;;;;60.10;24.27;;;10.90;99.90;;;;;;4991986;28;20085;-52
2022/01/01 07:47:36;;;;;;;62.53;24.05;;;10.90;99.90;;;;;;4992180;28;20047;-47
2022/01/01 07:50:03;;;;;;;60.03;23.67;;;10.90;99.90;;;;;;4992027;28;20084;-50
2022/01/01 07:52:29;;;;;;;57.10;23.58;;;11.00;99.90;;;;;;4991806;28;20426;-51
2022/01/01 07:54:54;;;;;;;72.90;23.77;;;11.00;99.90;;;;;;4992130;28;20039;-48
2022/01/01 07:57:20;;;;;;;61.28;23.67;;;11.00;99.90;;;;;;4992205;28;20484;-50
2022/01/01 07:59:45;;;;;;;56.65;23.90;;;11.00;99.90;;;;;;4991974;28;20035;-51
2022/01/01 08:02:11;;;;;;;58.65;23.95;;;11.00;99.90;;;;;;4991758;28;20519;-51
2022/01/01 08:04:37;;;;;;;73.07;24.77;;;11.00;99.90;;;;;;4991937;28;20038;-53
2022/01/01 08:07:02;;;;;;;61.63;25.23;;;11.10;99.90;;;;;;4991739;28;20045;-51
2022/01/01 08:09:28;;;;;;;62.13;24.85;;;11.10;99.90;;;;;;4991745;28;20046;-51
2022/01/01 08:11:54;;;;;;;66.53;26.08;;;11.10;99.90;;;;;;4991915;28;20095;-50
2022/01/01 08:14:23;;;;;;;72.25;27.80;;;11.20;99.90;;;;;;4991459;28;20050;-51
2022/01/01 08:16:59;;;;;;;65.85;26.83;;;11.20;99.90;;;;;;4991743;28;20046;-52
2022/01/01 08:19:26;;;;;;;68.20;27.27;;;11.30;99.90;;;;;;4991651;28;20042;-50
2022/01/01 08:21:52;;;;;;;71.70;27.02;;;11.30;99.90;;;;;;4990386;28;20491;-50
2022/01/01 08:24:19;;;;;;;74.97;27.30;;;11.30;99.90;;;;;;4990035;28;20057;-50
2022/01/01 08:26:45;;;;;;;60.47;27.50;;;11.30;99.90;;;;;;4991271;28;20061;-51
2022/01/01 08:29:11;;;;;;;68.40;28.60;;;11.40;99.90;;;;;;4991531;28;20046;-52
2022/01/01 08:31:36;;;;;;;70.57;29.98;;;11.40;99.90;;;;;;4991372;28;20049;-52
2022/01/01 08:34:02;;;;;;;74.40;29.27;;;11.40;99.90;;;;;;4991289;28;20042;-50
2022/01/01 08:36:28;;;;;;;74.55;28.55;;;11.40;99.90;;;;;;4991130;28;20049;-52
2022/01/01 08:38:54;;;;;;;72.85;30.02;;;11.50;99.90;;;;;;4991451;28;20038;-52
2022/01/01 08:41:19;;;;;;;65.65;30.38;;;11.50;99.90;;;;;;4991288;28;20472;-52
2022/01/01 08:43:45;;;;;;;82.07;30.00;;;11.50;99.90;;;;;;4989662;28;20070;-50
2022/01/01 08:46:11;;;;;;;64.65;28.75;;;11.50;99.90;;;;;;4991217;28;20114;-50
2022/01/01 08:48:37;;;;;;;73.07;28.67;;;11.60;99.90;;;;;;4991139;28;20043;-52
2022/01/01 08:51:33;;;;;;;73.80;28.58;;;11.60;99.90;;;;;;4990997;28;20081;-51
2022/01/01 08:53:58;;;;;;;74.53;28.88;;;11.60;99.90;;;;;;4969533;28;20078;-51
2022/01/01 08:56:24;;;;;;;70.75;31.45;;;11.60;99.90;;;;;;4969547;28;20136;-51
2022/01/01 08:58:50;;;;;;;72.90;29.08;;;11.70;99.90;;;;;;4969466;28;20089;-49
2022/01/01 09:01:15;;;;;;;65.97;28.40;;;11.70;99.90;;;;;;4969418;28;20046;-51
2022/01/01 09:03:41;;;;;;;64.38;28.05;;;11.70;99.90;;;;;;4969248;28;20059;-52
2022/01/01 09:06:08;;;;;;;61.85;28.67;;;11.70;99.90;;;;;;4969332;28;20049;-49
2022/01/01 09:08:38;;;;;;;57.45;27.48;;;11.80;99.90;;;;;;4969412;28;20047;-52
2022/01/01 09:11:04;;;;;;;65.72;27.40;;;11.80;99.90;;;;;;4969129;28;20189;-52
2022/01/01 09:13:30;;;;;;;53.10;26.63;;;11.80;99.90;;;;;;4969211;28;20043;-49
2022/01/01 09:15:56;;;;;;;55.47;26.92;;;11.90;99.90;;;;;;4969218;28;20043;-52
2022/01/01 09:18:22;;;;;;;54.75;28.02;;;11.90;99.90;;;;;;4969137;28;20401;-51
2022/01/01 09:20:48;;;;;;;49.05;25.98;;;11.90;99.90;;;;;;4969115;28;20049;-51
2022/01/01 09:23:14;;;;;;;59.17;26.67;;;12.00;99.90;;;;;;4969075;28;20047;-50
2022/01/01 09:25:41;;;;;;;49.22;28.95;;;12.00;99.90;;;;;;4969215;28;20462;-51
2022/01/01 09:28:07;;;;;;;59.45;29.20;;;12.00;99.90;;;;;;4969034;28;20058;-49
2022/01/01 09:30:32;;;;;;;46.28;26.65;;;12.10;99.90;;;;;;4982028;28;20114;-52
2022/01/01 09:32:58;;;;;;;52.13;27.42;;;12.10;99.90;;;;;;4990690;28;20034;-52
2022/01/01 09:35:24;;;;;;;54.33;27.23;;;12.10;99.90;;;;;;4989535;28;20121;-52
2022/01/01 09:37:49;;;;;;;49.55;24.35;;;12.10;99.90;;;;;;4990565;28;20046;-52
2022/01/01 09:40:15;;;;;;;62.83;26.15;;;12.10;99.90;;;;;;4990594;28;20062;-51
2022/01/01 09:42:42;;;;;;;44.72;24.58;;;12.10;99.90;;;;;;4990383;28;20046;-53
2022/01/01 09:45:09;;;;;;;42.58;24.38;;;12.10;99.90;;;;;;4990259;28;20050;-51
2022/01/01 09:47:36;;;;;;;44.03;23.98;;;12.20;99.90;;;;;;4990234;28;20556;-53
2022/01/01 09:50:05;;;;;;;47.08;22.98;;;12.20;99.90;;;;;;4990383;28;20049;-52
2022/01/01 09:52:30;;;;;;;;;;;12.20;99.90;;;;;;4990714;28;20041;-51
2022/01/01 09:54:56;;;;;;;39.25;20.02;;;12.30;99.90;;;;;;4989991;28;20008;-51
2022/01/01 09:57:22;;;;;;;31.88;19.73;;;12.30;99.90;;;;;;4990112;28;20046;-49
2022/01/01 09:59:48;;;;;;;40.20;20.50;;;12.40;99.90;;;;;;4990061;28;20057;-51
2022/01/01 10:02:13;;;;;;;42.45;19.63;;;12.40;99.90;;;;;;4990013;28;20476;-52
2022/01/01 10:04:41;;;;;;;34.45;18.40;;;12.40;99.90;;;;;;4990025;28;20042;-51
2022/01/01 10:07:07;;;;;;;34.47;17.65;;;12.50;99.90;;;;;;4990209;28;20087;-52
2022/01/01 10:09:35;;;;;;;34.40;16.88;;;12.50;99.90;;;;;;4989885;28;20046;-52
2022/01/01 10:12:01;;;;;;;36.90;15.70;;;12.50;99.90;;;;;;4989872;28;20046;-52
2022/01/01 10:14:53;;;;;;;29.85;16.48;;;12.50;99.90;;;;;;4989951;28;20037;-52
2022/01/01 10:17:22;;;;;;;32.53;16.98;;;12.50;99.90;;;;;;4988781;28;20057;-50
2022/01/01 10:19:53;;;;;;;25.80;12.90;;;12.50;99.90;;;;;;4989293;28;20095;-52
2022/01/01 10:22:20;;;;;;;25.63;13.13;;;12.50;99.90;;;;;;4989216;28;20441;-52
2022/01/01 10:27:42;;;;;;;26.15;13.55;;;12.60;99.90;;;;;;4989715;28;20050;-49
2022/01/01 10:30:16;;;;;;;24.52;13.40;;;12.60;99.90;;;;;;4989802;28;20082;-51
2022/01/01 10:33:01;;;;;;;29.85;14.23;;;12.60;99.90;;;;;;4989724;28;20046;-50
2022/01/01 10:35:28;;;;;;;25.63;13.57;;;12.60;99.90;;;;;;4988516;28;20034;-49
2022/01/01 10:37:53;;;;;;;30.33;13.18;;;12.60;99.90;;;;;;4989676;28;20046;-48
2022/01/01 10:40:27;;;;;;;28.38;13.00;;;12.60;99.90;;;;;;4989533;28;20100;-52
2022/01/01 10:42:53;;;;;;;27.10;13.38;;;12.60;99.90;;;;;;4989645;28;20464;-47
2022/01/01 10:45:29;;;;;;;27.17;12.35;;;12.50;99.90;;;;;;4989571;28;20084;-50
2022/01/01 10:51:15;;;;;;;24.60;13.18;;;12.60;99.90;;;;;;4917122;29;20564;-47
2022/01/01 10:53:40;;;;;;;30.75;13.73;;;12.60;99.90;;;;;;4932875;28;20142;-52
2022/01/01 10:56:17;;;;;;;24.13;11.73;;;12.70;99.90;;;;;;4933022;29;20056;-52
2022/01/01 10:58:43;;;;;;;28.17;11.68;;;12.60;99.90;;;;;;4932818;28;20381;-49
2022/01/01 11:01:10;;;;;;;23.77;11.02;;;12.60;99.90;;;;;;4932870;28;20047;-49
2022/01/01 11:03:41;;;;;;;22.23;11.13;;;12.70;99.90;;;;;;4932878;28;20051;-51
2022/01/01 11:06:10;;;;;;;19.35;10.07;;;12.70;99.90;;;;;;4932940;29;20051;-51
2022/01/01 11:08:37;;;;;;;22.17;10.57;;;12.70;99.90;;;;;;4932938;29;20099;-51
2022/01/01 11:11:04;;;;;;;20.23;10.35;;;12.80;99.90;;;;;;4932725;29;20066;-49
2022/01/01 11:13:31;;;;;;;21.48;10.10;;;12.70;99.90;;;;;;4932559;28;20039;-52
2022/01/01 11:15:57;;;;;;;25.05;10.88;;;12.80;99.90;;;;;;4932685;28;20635;-49
2022/01/01 11:18:25;;;;;;;23.23;10.80;;;12.80;99.90;;;;;;4932636;29;20121;-48
2022/01/01 11:20:51;;;;;;;21.40;11.10;;;12.80;99.90;;;;;;4934472;28;20115;-50
2022/01/01 11:23:19;;;;;;;18.60;10.00;;;12.80;99.90;;;;;;4992738;28;20030;-50
2022/01/01 11:25:45;;;;;;;19.98;9.05;;;12.80;99.90;;;;;;4992560;28;20123;-47
2022/01/01 11:28:14;;;;;;;19.63;10.48;;;12.80;99.90;;;;;;4991075;28;20495;-51
2022/01/01 11:30:49;;;;;;;18.80;9.73;;;12.80;99.90;;;;;;4992499;28;20158;-51
2022/01/01 11:33:19;;;;;;;22.50;9.63;;;12.80;99.90;;;;;;4992361;28;20045;-52
2022/01/01 11:35:52;;;;;;;26.50;10.60;;;12.80;99.90;;;;;;4990311;28;20054;-50
2022/01/01 11:38:18;;;;;;;20.85;9.60;;;12.80;99.90;;;;;;4992763;28;20034;-52
2022/01/01 11:41:08;;;;;;;21.73;10.63;;;12.80;99.90;;;;;;4992477;28;20042;-50
2022/01/01 11:43:41;;;;;;;20.52;9.40;;;12.80;99.90;;;;;;4992374;28;20384;-50
2022/01/01 11:46:23;;;;;;;21.45;8.52;;;12.80;99.90;;;;;;4992159;28;20038;-52
2022/01/01 11:49:03;;;;;;;14.82;8.13;;;12.90;99.90;;;;;;4992389;28;20104;-53
2022/01/01 11:51:32;;;;;;;17.40;7.53;;;12.90;99.90;;;;;;4992244;28;20045;-48
2022/01/01 11:54:14;;;;;;;16.00;7.75;;;12.90;99.90;;;;;;4991909;28;20088;-50
2022/01/01 11:56:46;;;;;;;14.82;7.82;;;12.90;99.90;;;;;;4992172;28;20054;-49
2022/01/01 11:59:44;;;;;;;14.68;7.25;;;12.90;99.90;;;;;;4991351;28;20046;-50
2022/01/01 12:02:19;;;;;;;14.25;6.82;;;13.00;99.90;;;;;;4991934;28;20042;-49
2022/01/01 12:04:46;;;;;;;13.95;6.72;;;13.00;99.90;;;;;;4991782;28;20133;-51
2022/01/01 12:07:18;;;;;;;15.82;7.25;;;13.00;99.90;;;;;;4991818;28;20553;-52
2022/01/01 12:10:05;;;;;;;13.13;6.90;;;13.10;99.90;;;;;;4991621;28;20046;-47
2022/01/01 12:12:49;;;;;;;12.57;6.07;;;13.00;99.90;;;;;;4991817;28;20089;-52
2022/01/01 12:15:24;;;;;;;15.20;6.32;;;13.00;99.90;;;;;;4991758;28;20039;-51
2022/01/01 12:18:06;;;;;;;18.50;6.70;;;13.10;99.90;;;;;;4991862;28;20046;-51
2022/01/01 12:20:38;;;;;;;12.23;5.78;;;13.10;99.90;;;;;;4991743;28;20039;-49
2022/01/01 12:23:09;;;;;;;15.13;6.60;;;13.10;99.90;;;;;;4990587;28;20058;-50
2022/01/01 12:25:37;;;;;;;19.58;6.25;;;13.10;99.90;;;;;;4991510;28;20488;-50
2022/01/01 12:28:09;;;;;;;14.65;5.93;;;13.20;99.90;;;;;;4991426;28;20081;-50
2022/01/01 12:30:41;;;;;;;14.50;5.78;;;13.10;99.90;;;;;;4991717;28;20129;-50
2022/01/01 12:33:09;;;;;;;16.33;6.97;;;13.10;99.90;;;;;;4991535;28;20111;-50
2022/01/01 12:35:42;;;;;;;14.80;6.38;;;13.00;99.90;;;;;;4991542;28;20082;-50
2022/01/01 12:38:14;;;;;;;14.82;6.00;;;13.00;99.90;;;;;;4991459;28;20045;-52